sensor_id;sensor_type;location;lat;lon;timestamp;pressure;altitude;pressure_sealevel;temperature;humidity
70314;BME280;71040;47.526;18.986;2023-06-26T00:04:25;99669.72;;;24.23;70.31
70314;BME280;71040;47.526;18.986;2023-06-26T00:09:30;99669.88;;;24.22;69.97
70314;BME280;71040;47.526;18.986;2023-06-26T00:14:36;99667.38;;;24.20;70.12
70314;BME280;71040;47.526;18.986;2023-06-26T00:19:38;99669.34;;;24.18;70.49
70314;BME280;71040;47.526;18.986;2023-06-26T00:24:41;99664.16;;;24.16;70.53
70314;BME280;71040;47.526;18.986;2023-06-26T00:29:41;99664.47;;;24.13;70.87
70314;BME280;71040;47.526;18.986;2023-06-26T00:34:42;99670.66;;;24.14;70.58
70314;BME280;71040;47.526;18.986;2023-06-26T00:39:42;99675.31;;;24.12;70.65
70314;BME280;71040;47.526;18.986;2023-06-26T00:44:45;99683.50;;;24.10;70.82
70314;BME280;71040;47.526;18.986;2023-06-26T00:49:45;99680.16;;;24.08;71.18
70314;BME280;71040;47.526;18.986;2023-06-26T00:54:48;99675.09;;;24.05;71.19
70314;BME280;71040;47.526;18.986;2023-06-26T00:59:49;99668.94;;;24.05;71.40
70314;BME280;71040;47.526;18.986;2023-06-26T01:04:55;99664.56;;;24.04;71.50
70314;BME280;71040;47.526;18.986;2023-06-26T01:09:55;99663.88;;;24.02;71.79
70314;BME280;71040;47.526;18.986;2023-06-26T01:15:01;99648.22;;;23.99;71.45
70314;BME280;71040;47.526;18.986;2023-06-26T01:20:06;99656.38;;;23.97;71.75
70314;BME280;71040;47.526;18.986;2023-06-26T01:30:08;99650.50;;;23.94;71.60
70314;BME280;71040;47.526;18.986;2023-06-26T01:35:11;99646.16;;;23.93;71.79
70314;BME280;71040;47.526;18.986;2023-06-26T01:40:14;99645.47;;;23.91;71.88
70314;BME280;71040;47.526;18.986;2023-06-26T01:45:24;99641.09;;;23.90;71.83
70314;BME280;71040;47.526;18.986;2023-06-26T01:50:31;99647.63;;;23.87;71.79
70314;BME280;71040;47.526;18.986;2023-06-26T01:55:51;99638.09;;;23.85;71.83
70314;BME280;71040;47.526;18.986;2023-06-26T02:00:53;99641.75;;;23.83;72.13
70314;BME280;71040;47.526;18.986;2023-06-26T02:05:53;99643.72;;;23.81;71.73
70314;BME280;71040;47.526;18.986;2023-06-26T02:10:56;99637.00;;;23.77;71.93
70314;BME280;71040;47.526;18.986;2023-06-26T02:15:57;99634.34;;;23.77;71.82
70314;BME280;71040;47.526;18.986;2023-06-26T02:21:00;99641.69;;;23.75;71.82
70314;BME280;71040;47.526;18.986;2023-06-26T02:26:00;99649.00;;;23.73;71.70
70314;BME280;71040;47.526;18.986;2023-06-26T02:31:01;99652.66;;;23.72;71.85
70314;BME280;71040;47.526;18.986;2023-06-26T02:36:01;99658.16;;;23.71;71.59
70314;BME280;71040;47.526;18.986;2023-06-26T02:41:01;99665.47;;;23.69;71.70
70314;BME280;71040;47.526;18.986;2023-06-26T02:46:04;99663.94;;;23.66;71.55
70314;BME280;71040;47.526;18.986;2023-06-26T02:51:05;99661.47;;;23.65;71.71
70314;BME280;71040;47.526;18.986;2023-06-26T02:56:11;99673.97;;;23.64;71.91
70314;BME280;71040;47.526;18.986;2023-06-26T03:01:11;99677.78;;;23.62;71.63
70314;BME280;71040;47.526;18.986;2023-06-26T03:06:14;99671.75;;;23.60;71.63
70314;BME280;71040;47.526;18.986;2023-06-26T03:11:17;99680.75;;;23.59;71.57
70314;BME280;71040;47.526;18.986;2023-06-26T03:16:17;99681.03;;;23.56;71.71
70314;BME280;71040;47.526;18.986;2023-06-26T03:21:18;99688.19;;;23.55;71.71
70314;BME280;71040;47.526;18.986;2023-06-26T03:26:21;99691.34;;;23.51;71.64
70314;BME280;71040;47.526;18.986;2023-06-26T03:31:27;99679.84;;;23.50;71.71
70314;BME280;71040;47.526;18.986;2023-06-26T03:36:27;99692.31;;;23.50;71.66
70314;BME280;71040;47.526;18.986;2023-06-26T03:41:28;99688.78;;;23.49;71.63
70314;BME280;71040;47.526;18.986;2023-06-26T03:46:31;99684.75;;;23.45;71.86
70314;BME280;71040;47.526;18.986;2023-06-26T03:51:31;99688.41;;;23.44;71.44
70314;BME280;71040;47.526;18.986;2023-06-26T03:56:34;99695.75;;;23.42;71.37
70314;BME280;71040;47.526;18.986;2023-06-26T04:01:36;99691.53;;;23.39;71.73
70314;BME280;71040;47.526;18.986;2023-06-26T04:06:36;99690.84;;;23.37;71.61
70314;BME280;71040;47.526;18.986;2023-06-26T04:11:41;99686.50;;;23.36;71.76
70314;BME280;71040;47.526;18.986;2023-06-26T04:16:44;99691.13;;;23.34;71.96
70314;BME280;71040;47.526;18.986;2023-06-26T04:21:45;99690.44;;;23.32;71.92
70314;BME280;71040;47.526;18.986;2023-06-26T04:26:46;99691.44;;;23.31;71.61
70314;BME280;71040;47.526;18.986;2023-06-26T04:31:46;99692.59;;;23.29;71.74
70314;BME280;71040;47.526;18.986;2023-06-26T04:36:47;99682.91;;;23.28;71.82
70314;BME280;71040;47.526;18.986;2023-06-26T04:41:48;99691.91;;;23.27;71.76
70314;BME280;71040;47.526;18.986;2023-06-26T04:46:48;99692.34;;;23.22;72.12
70314;BME280;71040;47.526;18.986;2023-06-26T04:51:52;99699.34;;;23.23;72.08
70314;BME280;71040;47.526;18.986;2023-06-26T04:56:53;99695.00;;;23.22;72.00
70314;BME280;71040;47.526;18.986;2023-06-26T05:01:53;99691.66;;;23.20;72.30
70314;BME280;71040;47.526;18.986;2023-06-26T05:06:54;99692.81;;;23.18;72.25
70314;BME280;71040;47.526;18.986;2023-06-26T05:11:56;99693.66;;;23.18;72.80
70314;BME280;71040;47.526;18.986;2023-06-26T05:16:57;99696.47;;;23.17;73.01
70314;BME280;71040;47.526;18.986;2023-06-26T05:21:58;99685.09;;;23.15;73.49
70314;BME280;71040;47.526;18.986;2023-06-26T05:26:59;99682.59;;;23.13;73.50
70314;BME280;71040;47.526;18.986;2023-06-26T05:32:00;99687.22;;;23.11;73.97
70314;BME280;71040;47.526;18.986;2023-06-26T05:37:01;99685.69;;;23.08;73.81
70314;BME280;71040;47.526;18.986;2023-06-26T05:42:05;99690.03;;;23.09;74.02
70314;BME280;71040;47.526;18.986;2023-06-26T05:47:06;99686.72;;;23.07;74.27
70314;BME280;71040;47.526;18.986;2023-06-26T05:52:07;99691.19;;;23.07;75.10
70314;BME280;71040;47.526;18.986;2023-06-26T05:57:07;99683.34;;;23.05;75.94
70314;BME280;71040;47.526;18.986;2023-06-26T06:02:11;99684.19;;;23.06;76.57
70314;BME280;71040;47.526;18.986;2023-06-26T06:07:12;99690.34;;;23.06;77.20
70314;BME280;71040;47.526;18.986;2023-06-26T06:12:13;99686.84;;;23.06;78.48
70314;BME280;71040;47.526;18.986;2023-06-26T06:17:16;99686.72;;;23.07;80.71
70314;BME280;71040;47.526;18.986;2023-06-26T06:22:16;99689.06;;;23.10;81.36
70314;BME280;71040;47.526;18.986;2023-06-26T06:32:17;99690.44;;;23.15;82.55
70314;BME280;71040;47.526;18.986;2023-06-26T06:37:20;99700.50;;;23.21;83.40
70314;BME280;71040;47.526;18.986;2023-06-26T06:42:31;99692.19;;;23.24;84.12
70314;BME280;71040;47.526;18.986;2023-06-26T06:47:32;99690.22;;;23.26;83.98
70314;BME280;71040;47.526;18.986;2023-06-26T06:52:43;99693.59;;;23.28;84.49
70314;BME280;71040;47.526;18.986;2023-06-26T06:57:43;99692.44;;;23.30;84.56
70314;BME280;71040;47.526;18.986;2023-06-26T07:02:46;99692.13;;;23.33;84.57
70314;BME280;71040;47.526;18.986;2023-06-26T07:07:46;99693.66;;;23.36;84.71
70314;BME280;71040;47.526;18.986;2023-06-26T07:12:51;99697.03;;;23.38;85.09
70314;BME280;71040;47.526;18.986;2023-06-26T07:17:54;99691.53;;;23.39;86.04
70314;BME280;71040;47.526;18.986;2023-06-26T07:22:55;99692.38;;;23.40;86.15
70314;BME280;71040;47.526;18.986;2023-06-26T07:28:01;99687.03;;;23.40;86.79
70314;BME280;71040;47.526;18.986;2023-06-26T07:33:02;99695.75;;;23.42;86.39
70314;BME280;71040;47.526;18.986;2023-06-26T07:38:02;99685.72;;;23.44;86.68
70314;BME280;71040;47.526;18.986;2023-06-26T07:43:03;99689.09;;;23.46;87.30
70314;BME280;71040;47.526;18.986;2023-06-26T07:48:06;99682.75;;;23.47;87.33
70314;BME280;71040;47.526;18.986;2023-06-26T07:53:11;99685.28;;;23.48;87.32
70314;BME280;71040;47.526;18.986;2023-06-26T07:58:12;99692.19;;;23.51;87.22
70314;BME280;71040;47.526;18.986;2023-06-26T08:03:12;99697.63;;;23.50;86.87
70314;BME280;71040;47.526;18.986;2023-06-26T08:08:12;99700.69;;;23.55;86.77
70314;BME280;71040;47.526;18.986;2023-06-26T08:13:13;99688.88;;;23.57;86.89
70314;BME280;71040;47.526;18.986;2023-06-26T08:18:22;99687.75;;;23.60;86.29
70314;BME280;71040;47.526;18.986;2023-06-26T08:23:22;99690.28;;;23.61;86.62
70314;BME280;71040;47.526;18.986;2023-06-26T08:28:25;99695.13;;;23.66;86.11
70314;BME280;71040;47.526;18.986;2023-06-26T08:33:25;99685.28;;;23.66;86.37
70314;BME280;71040;47.526;18.986;2023-06-26T08:38:26;99690.34;;;23.69;85.81
70314;BME280;71040;47.526;18.986;2023-06-26T08:43:26;99689.06;;;23.73;85.21
70314;BME280;71040;47.526;18.986;2023-06-26T08:48:32;99690.56;;;23.76;85.26
70314;BME280;71040;47.526;18.986;2023-06-26T08:54:19;99683.06;;;23.79;84.97
70314;BME280;71040;47.526;18.986;2023-06-26T08:59:04;99680.09;;;23.82;84.56
70314;BME280;71040;47.526;18.986;2023-06-26T09:04:09;99684.81;;;23.89;84.08
70314;BME280;71040;47.526;18.986;2023-06-26T09:09:10;99684.50;;;23.92;84.51
70314;BME280;71040;47.526;18.986;2023-06-26T09:14:11;99683.22;;;23.96;84.29
70314;BME280;71040;47.526;18.986;2023-06-26T09:19:14;99684.91;;;23.97;83.47
70314;BME280;71040;47.526;18.986;2023-06-26T09:24:16;99677.56;;;23.99;83.21
70314;BME280;71040;47.526;18.986;2023-06-26T09:29:17;99684.09;;;24.04;83.01
70314;BME280;71040;47.526;18.986;2023-06-26T09:34:20;99685.34;;;24.10;83.48
70314;BME280;71040;47.526;18.986;2023-06-26T09:39:21;99676.16;;;24.12;83.26
70314;BME280;71040;47.526;18.986;2023-06-26T09:44:23;99674.84;;;24.16;82.97
70314;BME280;71040;47.526;18.986;2023-06-26T09:49:24;99671.72;;;24.21;82.36
70314;BME280;71040;47.526;18.986;2023-06-26T09:54:25;99669.28;;;24.28;82.84
70314;BME280;71040;47.526;18.986;2023-06-26T09:59:27;99663.47;;;24.32;82.48
70314;BME280;71040;47.526;18.986;2023-06-26T10:04:30;99669.31;;;24.36;82.13
70314;BME280;71040;47.526;18.986;2023-06-26T10:09:31;99664.50;;;24.39;81.32
70314;BME280;71040;47.526;18.986;2023-06-26T10:14:37;99665.88;;;24.43;80.50
70314;BME280;71040;47.526;18.986;2023-06-26T10:19:44;99659.88;;;24.49;81.40
70314;BME280;71040;47.526;18.986;2023-06-26T10:24:48;99655.91;;;24.53;81.03
70314;BME280;71040;47.526;18.986;2023-06-26T10:29:54;99651.06;;;24.57;80.38
70314;BME280;71040;47.526;18.986;2023-06-26T10:34:56;99651.72;;;24.59;80.27
70314;BME280;71040;47.526;18.986;2023-06-26T10:39:59;99644.75;;;24.66;80.07
70314;BME280;71040;47.526;18.986;2023-06-26T10:45:19;99647.94;;;24.70;79.91
70314;BME280;71040;47.526;18.986;2023-06-26T10:50:29;99644.78;;;24.74;79.86
70314;BME280;71040;47.526;18.986;2023-06-26T10:55:43;99647.47;;;24.82;79.76
70314;BME280;71040;47.526;18.986;2023-06-26T11:00:49;99651.50;;;24.86;78.91
70314;BME280;71040;47.526;18.986;2023-06-26T11:06:18;99643.84;;;24.92;79.16
70314;BME280;71040;47.526;18.986;2023-06-26T11:11:22;99643.38;;;24.96;78.37
70314;BME280;71040;47.526;18.986;2023-06-26T11:16:42;99633.38;;;24.98;78.15
70314;BME280;71040;47.526;18.986;2023-06-26T11:21:43;99634.38;;;25.05;77.69
70314;BME280;71040;47.526;18.986;2023-06-26T11:26:44;99636.41;;;25.11;77.60
70314;BME280;71040;47.526;18.986;2023-06-26T11:31:45;99635.06;;;25.15;77.09
70314;BME280;71040;47.526;18.986;2023-06-26T11:36:45;99632.75;;;25.20;75.63
70314;BME280;71040;47.526;18.986;2023-06-26T11:41:48;99626.06;;;25.24;75.57
70314;BME280;71040;47.526;18.986;2023-06-26T11:46:52;99631.56;;;25.31;75.66
70314;BME280;71040;47.526;18.986;2023-06-26T11:51:54;99626.75;;;25.35;75.40
70314;BME280;71040;47.526;18.986;2023-06-26T11:56:58;99631.56;;;25.39;74.71
70314;BME280;71040;47.526;18.986;2023-06-26T12:02:05;99628.56;;;25.42;74.32
70314;BME280;71040;47.526;18.986;2023-06-26T12:07:09;99622.75;;;25.47;74.32
70314;BME280;71040;47.526;18.986;2023-06-26T12:12:14;99614.34;;;25.50;74.25
70314;BME280;71040;47.526;18.986;2023-06-26T12:17:15;99620.06;;;25.55;73.60
70314;BME280;71040;47.526;18.986;2023-06-26T12:22:16;99611.69;;;25.58;73.75
70314;BME280;71040;47.526;18.986;2023-06-26T12:27:18;99617.41;;;25.63;73.98
70314;BME280;71040;47.526;18.986;2023-06-26T12:32:22;99605.38;;;25.67;73.54
70314;BME280;71040;47.526;18.986;2023-06-26T12:37:23;99607.88;;;25.69;73.25
70314;BME280;71040;47.526;18.986;2023-06-26T12:42:26;99607.34;;;25.73;73.25
70314;BME280;71040;47.526;18.986;2023-06-26T12:47:28;99613.22;;;25.77;73.52
70314;BME280;71040;47.526;18.986;2023-06-26T12:52:30;99609.19;;;25.81;72.60
70314;BME280;71040;47.526;18.986;2023-06-26T12:57:36;99600.84;;;25.84;72.24
70314;BME280;71040;47.526;18.986;2023-06-26T13:02:36;99595.28;;;25.85;72.52
70314;BME280;71040;47.526;18.986;2023-06-26T13:07:36;99598.47;;;25.89;72.08
70314;BME280;71040;47.526;18.986;2023-06-26T13:12:37;99599.31;;;25.89;71.68
70314;BME280;71040;47.526;18.986;2023-06-26T13:17:37;99595.47;;;25.92;71.52
70314;BME280;71040;47.526;18.986;2023-06-26T13:22:38;99595.97;;;25.95;71.07
70314;BME280;71040;47.526;18.986;2023-06-26T13:27:38;99594.75;;;25.98;70.66
70314;BME280;71040;47.526;18.986;2023-06-26T13:32:38;99582.88;;;26.01;70.48
70314;BME280;71040;47.526;18.986;2023-06-26T13:37:42;99583.72;;;26.01;70.80
70314;BME280;71040;47.526;18.986;2023-06-26T13:42:43;99579.19;;;26.02;70.89
70314;BME280;71040;47.526;18.986;2023-06-26T13:47:44;99574.50;;;26.04;70.17
70314;BME280;71040;47.526;18.986;2023-06-26T13:52:46;99571.13;;;26.10;63.92
70314;BME280;71040;47.526;18.986;2023-06-26T13:57:47;99571.97;;;26.10;55.47
70314;BME280;71040;47.526;18.986;2023-06-26T14:02:51;99575.97;;;26.14;58.52
70314;BME280;71040;47.526;18.986;2023-06-26T14:07:56;99581.19;;;26.16;61.19
70314;BME280;71040;47.526;18.986;2023-06-26T14:12:56;99573.81;;;26.18;62.14
70314;BME280;71040;47.526;18.986;2023-06-26T14:18:00;99566.59;;;26.18;63.31
70314;BME280;71040;47.526;18.986;2023-06-26T14:23:02;99573.59;;;26.19;64.18
70314;BME280;71040;47.526;18.986;2023-06-26T14:28:05;99569.09;;;26.20;64.97
70314;BME280;71040;47.526;18.986;2023-06-26T14:33:05;99572.59;;;26.20;65.39
70314;BME280;71040;47.526;18.986;2023-06-26T14:38:08;99552.84;;;26.21;65.26
70314;BME280;71040;47.526;18.986;2023-06-26T14:43:08;99556.19;;;26.23;65.72
70314;BME280;71040;47.526;18.986;2023-06-26T14:48:09;99556.03;;;26.25;65.69
70314;BME280;71040;47.526;18.986;2023-06-26T14:53:09;99556.84;;;26.25;65.71
70314;BME280;71040;47.526;18.986;2023-06-26T14:58:19;99554.88;;;26.27;65.65
70314;BME280;71040;47.526;18.986;2023-06-26T15:03:27;99546.84;;;26.27;66.24
70314;BME280;71040;47.526;18.986;2023-06-26T15:08:27;99549.34;;;26.29;66.27
70314;BME280;71040;47.526;18.986;2023-06-26T15:13:30;99540.47;;;26.28;66.12
70314;BME280;71040;47.526;18.986;2023-06-26T15:18:30;99542.16;;;26.29;66.39
70314;BME280;71040;47.526;18.986;2023-06-26T15:23:31;99536.59;;;26.31;66.28
70314;BME280;71040;47.526;18.986;2023-06-26T15:28:31;99538.47;;;26.30;66.37
70314;BME280;71040;47.526;18.986;2023-06-26T15:33:36;99540.09;;;26.31;66.26
70314;BME280;71040;47.526;18.986;2023-06-26T15:38:36;99527.53;;;26.32;66.64
70314;BME280;71040;47.526;18.986;2023-06-26T15:43:37;99525.53;;;26.34;66.54
70314;BME280;71040;47.526;18.986;2023-06-26T15:48:39;99521.19;;;26.33;66.46
70314;BME280;71040;47.526;18.986;2023-06-26T15:53:45;99521.00;;;26.35;66.32
70314;BME280;71040;47.526;18.986;2023-06-26T15:58:46;99521.19;;;26.33;66.09
70314;BME280;71040;47.526;18.986;2023-06-26T16:03:48;99517.47;;;26.34;66.07
70314;BME280;71040;47.526;18.986;2023-06-26T16:08:49;99515.66;;;26.35;66.56
70314;BME280;71040;47.526;18.986;2023-06-26T16:13:49;99517.31;;;26.36;66.34
70314;BME280;71040;47.526;18.986;2023-06-26T16:18:50;99514.63;;;26.36;66.49
70314;BME280;71040;47.526;18.986;2023-06-26T16:23:50;99511.94;;;26.36;66.70
70314;BME280;71040;47.526;18.986;2023-06-26T16:28:53;99511.13;;;26.35;66.49
70314;BME280;71040;47.526;18.986;2023-06-26T16:33:56;99509.28;;;26.36;66.46
70314;BME280;71040;47.526;18.986;2023-06-26T16:38:59;99510.13;;;26.36;66.47
70314;BME280;71040;47.526;18.986;2023-06-26T16:44:03;99513.63;;;26.37;66.58
70314;BME280;71040;47.526;18.986;2023-06-26T16:49:06;99512.63;;;26.38;66.89
70314;BME280;71040;47.526;18.986;2023-06-26T16:54:07;99499.38;;;26.36;66.74
70314;BME280;71040;47.526;18.986;2023-06-26T16:59:07;99502.91;;;26.37;66.81
70314;BME280;71040;47.526;18.986;2023-06-26T17:04:07;99503.75;;;26.37;67.14
70314;BME280;71040;47.526;18.986;2023-06-26T17:09:10;99502.91;;;26.37;67.28
70314;BME280;71040;47.526;18.986;2023-06-26T17:14:15;99509.28;;;26.36;67.56
70314;BME280;71040;47.526;18.986;2023-06-26T17:19:16;99502.06;;;26.36;67.56
70314;BME280;71040;47.526;18.986;2023-06-26T17:24:16;99511.78;;;26.37;67.50
70314;BME280;71040;47.526;18.986;2023-06-26T17:29:25;99511.78;;;26.37;67.69
70314;BME280;71040;47.526;18.986;2023-06-26T17:34:25;99510.13;;;26.36;68.20
70314;BME280;71040;47.526;18.986;2023-06-26T17:39:28;99503.91;;;26.36;68.09
70314;BME280;71040;47.526;18.986;2023-06-26T17:44:29;99501.25;;;26.36;67.98
70314;BME280;71040;47.526;18.986;2023-06-26T17:49:29;99508.44;;;26.35;68.04
70314;BME280;71040;47.526;18.986;2023-06-26T17:54:33;99511.13;;;26.35;68.11
70314;BME280;71040;47.526;18.986;2023-06-26T17:59:35;99507.78;;;26.33;68.60
70314;BME280;71040;47.526;18.986;2023-06-26T18:04:36;99506.75;;;26.34;68.31
70314;BME280;71040;47.526;18.986;2023-06-26T18:09:36;99506.94;;;26.32;68.46
70314;BME280;71040;47.526;18.986;2023-06-26T18:14:37;99506.94;;;26.32;68.48
70314;BME280;71040;47.526;18.986;2023-06-26T18:19:46;99515.81;;;26.33;68.61
70314;BME280;71040;47.526;18.986;2023-06-26T18:24:46;99517.19;;;26.29;68.09
70314;BME280;71040;47.526;18.986;2023-06-26T18:29:47;99524.63;;;26.03;64.69
70314;BME280;71040;47.526;18.986;2023-06-26T18:34:50;99534.75;;;25.68;62.79
70314;BME280;71040;47.526;18.986;2023-06-26T18:39:50;99539.09;;;25.45;62.35
70314;BME280;71040;47.526;18.986;2023-06-26T18:44:51;99547.13;;;25.29;62.82
70314;BME280;71040;47.526;18.986;2023-06-26T18:49:54;99543.63;;;25.12;62.66
70314;BME280;71040;47.526;18.986;2023-06-26T18:54:55;99551.31;;;25.07;63.43
70314;BME280;71040;47.526;18.986;2023-06-26T18:59:55;99560.50;;;24.96;63.49
70314;BME280;71040;47.526;18.986;2023-06-26T19:04:58;99561.81;;;24.92;63.25
70314;BME280;71040;47.526;18.986;2023-06-26T19:09:58;99566.13;;;24.85;63.05
70314;BME280;71040;47.526;18.986;2023-06-26T19:14:59;99573.81;;;24.80;63.45
70314;BME280;71040;47.526;18.986;2023-06-26T19:20:02;99571.97;;;24.88;62.20
70314;BME280;71040;47.526;18.986;2023-06-26T19:25:05;99564.50;;;25.16;62.08
70314;BME280;71040;47.526;18.986;2023-06-26T19:30:08;99571.72;;;25.40;62.66
70314;BME280;71040;47.526;18.986;2023-06-26T19:35:09;99573.22;;;25.59;62.01
70314;BME280;71040;47.526;18.986;2023-06-26T19:40:10;99571.41;;;25.68;62.08
70314;BME280;71040;47.526;18.986;2023-06-26T19:45:15;99577.56;;;25.76;62.09
70314;BME280;71040;47.526;18.986;2023-06-26T19:50:17;99574.56;;;25.79;62.81
70314;BME280;71040;47.526;18.986;2023-06-26T19:55:18;99573.22;;;25.83;63.24
70314;BME280;71040;47.526;18.986;2023-06-26T20:00:23;99584.56;;;25.85;63.24
70314;BME280;71040;47.526;18.986;2023-06-26T20:05:25;99585.25;;;25.87;63.82
70314;BME280;71040;47.526;18.986;2023-06-26T20:10:28;99588.94;;;25.86;63.92
70314;BME280;71040;47.526;18.986;2023-06-26T20:15:29;99584.25;;;25.88;64.10
70314;BME280;71040;47.526;18.986;2023-06-26T20:20:31;99577.88;;;25.89;64.13
70314;BME280;71040;47.526;18.986;2023-06-26T20:25:32;99578.88;;;25.88;64.42
70314;BME280;71040;47.526;18.986;2023-06-26T20:30:34;99579.91;;;25.87;64.49
70314;BME280;71040;47.526;18.986;2023-06-26T20:35:37;99575.38;;;25.88;64.71
70314;BME280;71040;47.526;18.986;2023-06-26T20:40:42;99582.41;;;25.89;64.65
70314;BME280;71040;47.526;18.986;2023-06-26T20:45:43;99583.41;;;25.88;64.79
70314;BME280;71040;47.526;18.986;2023-06-26T20:50:43;99585.25;;;25.87;65.28
70314;BME280;71040;47.526;18.986;2023-06-26T20:55:44;99576.53;;;25.85;65.56
70314;BME280;71040;47.526;18.986;2023-06-26T21:00:45;99578.22;;;25.86;65.69
70314;BME280;71040;47.526;18.986;2023-06-26T21:05:45;99575.06;;;25.83;66.21
70314;BME280;71040;47.526;18.986;2023-06-26T21:10:48;99575.06;;;25.83;66.23
70314;BME280;71040;47.526;18.986;2023-06-26T21:15:53;99567.19;;;25.81;66.34
70314;BME280;71040;47.526;18.986;2023-06-26T21:20:58;99560.16;;;25.80;66.71
70314;BME280;71040;47.526;18.986;2023-06-26T21:26:03;99571.88;;;25.79;66.73
70314;BME280;71040;47.526;18.986;2023-06-26T21:31:04;99570.22;;;25.78;66.39
70314;BME280;71040;47.526;18.986;2023-06-26T21:36:06;99579.41;;;25.76;66.64
70314;BME280;71040;47.526;18.986;2023-06-26T21:41:07;99571.38;;;25.76;66.75
70314;BME280;71040;47.526;18.986;2023-06-26T21:46:07;99559.34;;;25.72;66.58
70314;BME280;71040;47.526;18.986;2023-06-26T21:51:08;99557.69;;;25.71;66.78
70314;BME280;71040;47.526;18.986;2023-06-26T21:56:08;99556.00;;;25.70;67.12
70314;BME280;71040;47.526;18.986;2023-06-26T22:01:11;99564.03;;;25.70;67.49
70314;BME280;71040;47.526;18.986;2023-06-26T22:06:14;99552.66;;;25.68;67.23
70314;BME280;71040;47.526;18.986;2023-06-26T22:11:14;99552.81;;;25.66;67.04
70314;BME280;71040;47.526;18.986;2023-06-26T22:16:17;99551.16;;;25.65;67.32
70314;BME280;71040;47.526;18.986;2023-06-26T22:21:17;99545.97;;;25.64;67.32
70314;BME280;71040;47.526;18.986;2023-06-26T22:26:19;99546.31;;;25.60;67.73
70314;BME280;71040;47.526;18.986;2023-06-26T22:31:20;99541.94;;;25.59;68.02
70314;BME280;71040;47.526;18.986;2023-06-26T22:36:20;99548.13;;;25.60;68.01
70314;BME280;71040;47.526;18.986;2023-06-26T22:41:20;99541.78;;;25.53;68.09
70314;BME280;71040;47.526;18.986;2023-06-26T22:46:23;99546.78;;;25.56;68.13
70314;BME280;71040;47.526;18.986;2023-06-26T22:51:23;99545.44;;;25.52;68.12
70314;BME280;71040;47.526;18.986;2023-06-26T22:56:29;99523.19;;;25.51;68.47
70314;BME280;71040;47.526;18.986;2023-06-26T23:01:31;99526.22;;;25.48;68.14
70314;BME280;71040;47.526;18.986;2023-06-26T23:06:34;99533.25;;;25.49;68.75
70314;BME280;71040;47.526;18.986;2023-06-26T23:11:39;99525.56;;;25.46;68.71
70314;BME280;71040;47.526;18.986;2023-06-26T23:16:40;99522.06;;;25.46;68.80
70314;BME280;71040;47.526;18.986;2023-06-26T23:21:43;99516.03;;;25.44;68.33
70314;BME280;71040;47.526;18.986;2023-06-26T23:26:44;99513.69;;;25.41;68.70
70314;BME280;71040;47.526;18.986;2023-06-26T23:31:46;99519.41;;;25.38;68.36
70314;BME280;71040;47.526;18.986;2023-06-26T23:36:52;99523.91;;;25.37;68.92
70314;BME280;71040;47.526;18.986;2023-06-26T23:41:57;99522.22;;;25.36;68.42
70314;BME280;71040;47.526;18.986;2023-06-26T23:47:04;99503.84;;;25.33;68.34
70314;BME280;71040;47.526;18.986;2023-06-26T23:52:07;99512.88;;;25.32;68.29
70314;BME280;71040;47.526;18.986;2023-06-26T23:57:07;99506.00;;;25.30;68.18
